Baie-Des-Sables, Canada
Current Conditions -  °F | °C
As of 7:00 PM on Monday 20 Oct 2014 (Local Time) from CYYY Reporting Station
Broken Clouds Broken Clouds  
Wind Chill: 31°   Ceiling: 3500
Heat Index: 39°   Visibility: 30mi
Dew Point: 28°   Wind: 14mph
Humidity: 65%   Direction: 260°W
Pressure: 29.84"   Gusts: 25mph
Location:  48.72°N, 67.87°W
Report Text: CYYY 202300Z 26012G22KT 30SM BKN035 04/M02 A2984 RMK SC6 SLP106
Loading
Personal Weather Stations






























Interactive Weather Map
Tropical Storm Tracking
New forecast layout! Learn more

10-Day Weather Forecast

Advertisements
Track Severe Weather on mobile